sensor_id;sensor_type;location;lat;lon;timestamp;temperature;humidity
21489;DHT22;10906;45.194;5.684;2023-08-30T04:00:57;14.00;99.90
21489;DHT22;10906;45.194;5.684;2023-08-30T04:03:42;13.90;99.90
21489;DHT22;10906;45.194;5.684;2023-08-30T04:06:26;13.90;99.90
21489;DHT22;10906;45.194;5.684;2023-08-30T04:09:10;13.90;99.90
21489;DHT22;10906;45.194;5.684;2023-08-30T04:11:55;13.80;99.90
21489;DHT22;10906;45.194;5.684;2023-08-30T04:14:39;13.70;99.90
21489;DHT22;10906;45.194;5.684;2023-08-30T04:17:24;13.70;99.90
21489;DHT22;10906;45.194;5.684;2023-08-30T04:20:09;13.70;99.90
21489;DHT22;10906;45.194;5.684;2023-08-30T04:22:54;13.70;99.90
21489;DHT22;10906;45.194;5.684;2023-08-30T04:25:40;13.70;99.90
21489;DHT22;10906;45.194;5.684;2023-08-30T04:28:25;13.60;99.90
21489;DHT22;10906;45.194;5.684;2023-08-30T04:31:10;13.60;99.90
21489;DHT22;10906;45.194;5.684;2023-08-30T04:33:55;13.60;99.90
21489;DHT22;10906;45.194;5.684;2023-08-30T04:36:39;13.60;99.90
21489;DHT22;10906;45.194;5.684;2023-08-30T04:39:24;13.50;99.90
21489;DHT22;10906;45.194;5.684;2023-08-30T04:42:09;13.60;99.90
21489;DHT22;10906;45.194;5.684;2023-08-30T04:44:53;13.60;99.90
21489;DHT22;10906;45.194;5.684;2023-08-30T04:47:39;13.60;99.90
21489;DHT22;10906;45.194;5.684;2023-08-30T04:50:23;13.50;99.90
21489;DHT22;10906;45.194;5.684;2023-08-30T04:53:08;13.40;99.90
21489;DHT22;10906;45.194;5.684;2023-08-30T04:55:52;13.50;99.90
21489;DHT22;10906;45.194;5.684;2023-08-30T04:58:37;13.50;99.90
21489;DHT22;10906;45.194;5.684;2023-08-30T05:01:22;13.60;99.90
21489;DHT22;10906;45.194;5.684;2023-08-30T05:04:06;13.50;99.90
21489;DHT22;10906;45.194;5.684;2023-08-30T05:06:51;13.40;99.90
21489;DHT22;10906;45.194;5.684;2023-08-30T05:09:35;13.50;99.90
21489;DHT22;10906;45.194;5.684;2023-08-30T05:12:20;13.50;99.90
21489;DHT22;10906;45.194;5.684;2023-08-30T05:15:04;13.30;99.90
21489;DHT22;10906;45.194;5.684;2023-08-30T05:17:48;13.30;99.90
21489;DHT22;10906;45.194;5.684;2023-08-30T05:20:33;13.30;99.90
21489;DHT22;10906;45.194;5.684;2023-08-30T05:23:17;13.30;99.90
21489;DHT22;10906;45.194;5.684;2023-08-30T05:26:02;13.40;99.90
21489;DHT22;10906;45.194;5.684;2023-08-30T05:28:46;13.40;99.90
21489;DHT22;10906;45.194;5.684;2023-08-30T05:31:31;13.50;99.90
21489;DHT22;10906;45.194;5.684;2023-08-30T05:34:18;13.50;99.90
21489;DHT22;10906;45.194;5.684;2023-08-30T05:37:03;13.40;99.90
21489;DHT22;10906;45.194;5.684;2023-08-30T05:39:47;13.50;99.90
21489;DHT22;10906;45.194;5.684;2023-08-30T05:42:32;13.50;99.90
21489;DHT22;10906;45.194;5.684;2023-08-30T05:45:16;13.50;99.90
21489;DHT22;10906;45.194;5.684;2023-08-30T05:48:00;13.50;99.90
21489;DHT22;10906;45.194;5.684;2023-08-30T05:50:44;13.50;99.90
21489;DHT22;10906;45.194;5.684;2023-08-30T05:53:29;13.60;99.90
21489;DHT22;10906;45.194;5.684;2023-08-30T05:56:13;13.60;99.90
21489;DHT22;10906;45.194;5.684;2023-08-30T05:58:57;13.60;99.90
21489;DHT22;10906;45.194;5.684;2023-08-30T06:09:46;13.70;99.90
21489;DHT22;10906;45.194;5.684;2023-08-30T06:12:40;13.70;99.90
21489;DHT22;10906;45.194;5.684;2023-08-30T06:15:49;13.70;99.90
21489;DHT22;10906;45.194;5.684;2023-08-30T06:19:13;13.60;99.90
21489;DHT22;10906;45.194;5.684;2023-08-30T06:22:03;13.80;99.90
21489;DHT22;10906;45.194;5.684;2023-08-30T06:25:27;12.40;99.90
21489;DHT22;10906;45.194;5.684;2023-08-30T06:28:11;13.90;99.90
21489;DHT22;10906;45.194;5.684;2023-08-30T06:30:56;14.00;99.90
21489;DHT22;10906;45.194;5.684;2023-08-30T06:33:41;14.00;99.90
21489;DHT22;10906;45.194;5.684;2023-08-30T06:36:26;14.10;99.90
21489;DHT22;10906;45.194;5.684;2023-08-30T06:39:10;14.20;99.90
21489;DHT22;10906;45.194;5.684;2023-08-30T06:41:55;14.40;99.90
21489;DHT22;10906;45.194;5.684;2023-08-30T06:44:40;14.50;99.90
21489;DHT22;10906;45.194;5.684;2023-08-30T06:47:24;14.50;99.90
21489;DHT22;10906;45.194;5.684;2023-08-30T06:50:12;14.50;99.90
21489;DHT22;10906;45.194;5.684;2023-08-30T06:52:56;14.50;99.90
21489;DHT22;10906;45.194;5.684;2023-08-30T06:55:43;14.50;99.90
21489;DHT22;10906;45.194;5.684;2023-08-30T06:58:52;13.30;99.90
21489;DHT22;10906;45.194;5.684;2023-08-30T07:05:05;13.60;99.90
21489;DHT22;10906;45.194;5.684;2023-08-30T07:07:53;15.80;99.90
21489;DHT22;10906;45.194;5.684;2023-08-30T07:10:38;14.90;99.90
21489;DHT22;10906;45.194;5.684;2023-08-30T07:13:28;14.90;99.90
21489;DHT22;10906;45.194;5.684;2023-08-30T07:16:12;13.50;99.90
21489;DHT22;10906;45.194;5.684;2023-08-30T07:19:00;15.10;99.90
21489;DHT22;10906;45.194;5.684;2023-08-30T07:22:00;14.10;99.90
21489;DHT22;10906;45.194;5.684;2023-08-30T07:24:45;15.30;99.90
21489;DHT22;10906;45.194;5.684;2023-08-30T07:27:32;15.30;99.90
21489;DHT22;10906;45.194;5.684;2023-08-30T07:30:20;15.40;99.90
21489;DHT22;10906;45.194;5.684;2023-08-30T07:33:05;15.30;99.90
21489;DHT22;10906;45.194;5.684;2023-08-30T07:35:49;15.40;99.90
21489;DHT22;10906;45.194;5.684;2023-08-30T07:38:34;15.30;99.90
21489;DHT22;10906;45.194;5.684;2023-08-30T07:41:19;15.50;99.90
21489;DHT22;10906;45.194;5.684;2023-08-30T07:44:03;15.60;99.90
21489;DHT22;10906;45.194;5.684;2023-08-30T07:46:48;15.60;99.90
21489;DHT22;10906;45.194;5.684;2023-08-30T07:49:32;15.60;99.90
21489;DHT22;10906;45.194;5.684;2023-08-30T07:52:17;15.70;99.90
21489;DHT22;10906;45.194;5.684;2023-08-30T07:55:05;15.90;99.90
21489;DHT22;10906;45.194;5.684;2023-08-30T07:58:33;16.00;99.90
21489;DHT22;10906;45.194;5.684;2023-08-30T08:01:30;16.00;99.90
21489;DHT22;10906;45.194;5.684;2023-08-30T08:24:33;17.20;99.90
21489;DHT22;10906;45.194;5.684;2023-08-30T08:33:23;17.40;99.90
21489;DHT22;10906;45.194;5.684;2023-08-30T08:38:43;17.80;99.90
21489;DHT22;10906;45.194;5.684;2023-08-30T08:46:11;17.60;99.90
21489;DHT22;10906;45.194;5.684;2023-08-30T08:56:17;18.70;99.90
21489;DHT22;10906;45.194;5.684;2023-08-30T08:59:11;18.90;99.90
21489;DHT22;10906;45.194;5.684;2023-08-30T09:01:56;18.90;99.90
21489;DHT22;10906;45.194;5.684;2023-08-30T09:04:43;19.10;99.90
21489;DHT22;10906;45.194;5.684;2023-08-30T09:30:14;19.50;99.70
21489;DHT22;10906;45.194;5.684;2023-08-30T09:33:06;19.50;98.90
21489;DHT22;10906;45.194;5.684;2023-08-30T09:36:37;19.50;99.10
21489;DHT22;10906;45.194;5.684;2023-08-30T09:50:52;19.80;99.20
21489;DHT22;10906;45.194;5.684;2023-08-30T09:53:54;20.10;98.80
21489;DHT22;10906;45.194;5.684;2023-08-30T09:56:44;20.20;99.10
21489;DHT22;10906;45.194;5.684;2023-08-30T09:59:28;20.40;98.60
21489;DHT22;10906;45.194;5.684;2023-08-30T10:02:13;20.50;99.20
21489;DHT22;10906;45.194;5.684;2023-08-30T10:04:59;20.40;97.80
21489;DHT22;10906;45.194;5.684;2023-08-30T10:07:44;20.60;98.20
21489;DHT22;10906;45.194;5.684;2023-08-30T10:10:30;20.60;97.60
21489;DHT22;10906;45.194;5.684;2023-08-30T10:13:15;20.40;97.90
21489;DHT22;10906;45.194;5.684;2023-08-30T10:29:20;20.70;95.70
21489;DHT22;10906;45.194;5.684;2023-08-30T10:32:08;20.80;97.30
21489;DHT22;10906;45.194;5.684;2023-08-30T10:35:03;21.20;98.70
21489;DHT22;10906;45.194;5.684;2023-08-30T10:40:26;21.30;96.60
21489;DHT22;10906;45.194;5.684;2023-08-30T10:50:42;21.50;95.90
21489;DHT22;10906;45.194;5.684;2023-08-30T10:53:33;21.80;96.70
21489;DHT22;10906;45.194;5.684;2023-08-30T10:56:29;21.80;96.00
21489;DHT22;10906;45.194;5.684;2023-08-30T11:02:58;22.10;93.80
21489;DHT22;10906;45.194;5.684;2023-08-30T11:16:29;22.60;93.40
21489;DHT22;10906;45.194;5.684;2023-08-30T11:34:58;22.20;89.70
21489;DHT22;10906;45.194;5.684;2023-08-30T11:37:46;22.30;90.20
21489;DHT22;10906;45.194;5.684;2023-08-30T11:40:36;23.40;91.20
21489;DHT22;10906;45.194;5.684;2023-08-30T11:43:21;23.40;92.20
21489;DHT22;10906;45.194;5.684;2023-08-30T11:46:05;23.50;91.70
21489;DHT22;10906;45.194;5.684;2023-08-30T11:48:51;23.70;90.60
21489;DHT22;10906;45.194;5.684;2023-08-30T11:51:36;23.50;90.10
21489;DHT22;10906;45.194;5.684;2023-08-30T11:54:21;23.30;90.40
21489;DHT22;10906;45.194;5.684;2023-08-30T11:57:05;23.10;90.70
21489;DHT22;10906;45.194;5.684;2023-08-30T11:59:50;23.10;90.50
21489;DHT22;10906;45.194;5.684;2023-08-30T12:02:34;23.30;91.10
21489;DHT22;10906;45.194;5.684;2023-08-30T12:05:22;23.40;90.30
21489;DHT22;10906;45.194;5.684;2023-08-30T12:08:18;23.40;89.50
21489;DHT22;10906;45.194;5.684;2023-08-30T12:11:02;23.00;85.10
21489;DHT22;10906;45.194;5.684;2023-08-30T12:13:47;23.10;88.40
21489;DHT22;10906;45.194;5.684;2023-08-30T12:16:31;23.30;87.50
21489;DHT22;10906;45.194;5.684;2023-08-30T12:19:16;23.40;87.10
21489;DHT22;10906;45.194;5.684;2023-08-30T12:22:04;23.40;86.00
21489;DHT22;10906;45.194;5.684;2023-08-30T12:24:49;23.20;83.20
21489;DHT22;10906;45.194;5.684;2023-08-30T12:27:34;23.20;85.10
21489;DHT22;10906;45.194;5.684;2023-08-30T12:30:18;23.30;85.30
21489;DHT22;10906;45.194;5.684;2023-08-30T12:33:03;23.50;84.90
21489;DHT22;10906;45.194;5.684;2023-08-30T12:35:48;23.40;84.60
21489;DHT22;10906;45.194;5.684;2023-08-30T12:38:35;23.30;84.30
21489;DHT22;10906;45.194;5.684;2023-08-30T12:41:20;23.40;83.30
21489;DHT22;10906;45.194;5.684;2023-08-30T12:44:06;23.80;84.40
21489;DHT22;10906;45.194;5.684;2023-08-30T12:46:51;23.90;82.60
21489;DHT22;10906;45.194;5.684;2023-08-30T12:49:35;23.90;83.50
21489;DHT22;10906;45.194;5.684;2023-08-30T12:52:20;23.90;82.70
21489;DHT22;10906;45.194;5.684;2023-08-30T12:55:04;23.80;81.90
21489;DHT22;10906;45.194;5.684;2023-08-30T12:57:51;23.60;83.20
21489;DHT22;10906;45.194;5.684;2023-08-30T13:00:36;23.40;81.30
21489;DHT22;10906;45.194;5.684;2023-08-30T13:03:20;23.10;80.40
21489;DHT22;10906;45.194;5.684;2023-08-30T13:06:05;23.00;81.40
21489;DHT22;10906;45.194;5.684;2023-08-30T13:08:50;23.00;82.30
21489;DHT22;10906;45.194;5.684;2023-08-30T13:11:35;23.10;83.40
21489;DHT22;10906;45.194;5.684;2023-08-30T13:14:19;23.30;81.60
21489;DHT22;10906;45.194;5.684;2023-08-30T13:17:04;23.30;81.60
21489;DHT22;10906;45.194;5.684;2023-08-30T13:19:48;23.10;80.40
21489;DHT22;10906;45.194;5.684;2023-08-30T13:22:33;22.90;80.80
21489;DHT22;10906;45.194;5.684;2023-08-30T13:25:18;23.00;81.80
21489;DHT22;10906;45.194;5.684;2023-08-30T13:28:02;22.90;80.60
21489;DHT22;10906;45.194;5.684;2023-08-30T13:30:48;23.00;80.30
21489;DHT22;10906;45.194;5.684;2023-08-30T13:33:35;23.00;80.50
21489;DHT22;10906;45.194;5.684;2023-08-30T13:36:22;22.90;80.90
21489;DHT22;10906;45.194;5.684;2023-08-30T13:39:06;22.90;80.60
21489;DHT22;10906;45.194;5.684;2023-08-30T13:41:51;22.80;81.00
21489;DHT22;10906;45.194;5.684;2023-08-30T13:44:36;22.90;81.30
21489;DHT22;10906;45.194;5.684;2023-08-30T13:47:25;22.90;81.90
21489;DHT22;10906;45.194;5.684;2023-08-30T13:50:10;22.90;81.80
21489;DHT22;10906;45.194;5.684;2023-08-30T13:52:59;23.00;81.60
21489;DHT22;10906;45.194;5.684;2023-08-30T13:55:46;23.10;81.00
21489;DHT22;10906;45.194;5.684;2023-08-30T13:58:33;23.30;78.20
21489;DHT22;10906;45.194;5.684;2023-08-30T14:01:18;23.40;80.00
21489;DHT22;10906;45.194;5.684;2023-08-30T14:04:03;23.40;79.10
21489;DHT22;10906;45.194;5.684;2023-08-30T14:06:49;23.40;79.10
21489;DHT22;10906;45.194;5.684;2023-08-30T14:09:33;23.40;79.20
21489;DHT22;10906;45.194;5.684;2023-08-30T14:12:18;23.50;79.30
21489;DHT22;10906;45.194;5.684;2023-08-30T14:15:03;23.50;79.70
21489;DHT22;10906;45.194;5.684;2023-08-30T14:17:48;23.70;79.20
21489;DHT22;10906;45.194;5.684;2023-08-30T14:20:32;23.50;78.40
21489;DHT22;10906;45.194;5.684;2023-08-30T14:23:17;23.50;79.10
21489;DHT22;10906;45.194;5.684;2023-08-30T14:26:06;23.50;78.60
21489;DHT22;10906;45.194;5.684;2023-08-30T14:28:54;23.60;79.60
21489;DHT22;10906;45.194;5.684;2023-08-30T14:31:41;23.80;80.40
21489;DHT22;10906;45.194;5.684;2023-08-30T14:34:27;23.80;78.10
21489;DHT22;10906;45.194;5.684;2023-08-30T14:37:11;23.80;78.10
21489;DHT22;10906;45.194;5.684;2023-08-30T14:39:56;24.00;77.90
21489;DHT22;10906;45.194;5.684;2023-08-30T14:42:41;24.10;77.60
21489;DHT22;10906;45.194;5.684;2023-08-30T14:45:25;24.50;77.40
21489;DHT22;10906;45.194;5.684;2023-08-30T14:48:10;25.40;76.00
21489;DHT22;10906;45.194;5.684;2023-08-30T14:50:54;26.80;74.40
21489;DHT22;10906;45.194;5.684;2023-08-30T14:53:39;27.40;70.60
21489;DHT22;10906;45.194;5.684;2023-08-30T14:56:23;27.60;69.80
21489;DHT22;10906;45.194;5.684;2023-08-30T14:59:09;27.80;69.70
21489;DHT22;10906;45.194;5.684;2023-08-30T15:01:53;27.80;69.50
21489;DHT22;10906;45.194;5.684;2023-08-30T15:04:39;27.40;68.70
21489;DHT22;10906;45.194;5.684;2023-08-30T15:07:26;26.60;70.10
21489;DHT22;10906;45.194;5.684;2023-08-30T15:10:13;27.10;69.80
21489;DHT22;10906;45.194;5.684;2023-08-30T15:12:58;27.70;68.40
21489;DHT22;10906;45.194;5.684;2023-08-30T15:15:43;28.20;67.50
21489;DHT22;10906;45.194;5.684;2023-08-30T15:18:30;28.40;65.00
21489;DHT22;10906;45.194;5.684;2023-08-30T15:46:21;27.40;60.80
21489;DHT22;10906;45.194;5.684;2023-08-30T15:49:33;26.90;61.10
21489;DHT22;10906;45.194;5.684;2023-08-30T15:52:34;26.90;63.40
21489;DHT22;10906;45.194;5.684;2023-08-30T15:55:31;26.70;62.50
21489;DHT22;10906;45.194;5.684;2023-08-30T16:28:17;24.70;65.40
21489;DHT22;10906;45.194;5.684;2023-08-30T16:31:06;24.60;67.20
21489;DHT22;10906;45.194;5.684;2023-08-30T16:33:51;24.60;65.80
21489;DHT22;10906;45.194;5.684;2023-08-30T16:36:35;24.30;66.60
21489;DHT22;10906;45.194;5.684;2023-08-30T16:39:20;24.10;66.90
21489;DHT22;10906;45.194;5.684;2023-08-30T16:42:05;23.80;66.90
21489;DHT22;10906;45.194;5.684;2023-08-30T16:44:50;23.50;67.80
21489;DHT22;10906;45.194;5.684;2023-08-30T16:47:35;23.20;68.20
21489;DHT22;10906;45.194;5.684;2023-08-30T16:50:21;23.00;68.40
21489;DHT22;10906;45.194;5.684;2023-08-30T16:53:06;22.90;68.70
21489;DHT22;10906;45.194;5.684;2023-08-30T16:55:54;22.80;69.40
21489;DHT22;10906;45.194;5.684;2023-08-30T16:58:39;22.70;70.00
21489;DHT22;10906;45.194;5.684;2023-08-30T17:01:24;22.60;70.20
21489;DHT22;10906;45.194;5.684;2023-08-30T17:04:09;22.60;70.70
21489;DHT22;10906;45.194;5.684;2023-08-30T17:06:54;22.50;70.80
21489;DHT22;10906;45.194;5.684;2023-08-30T17:09:43;22.40;70.80
21489;DHT22;10906;45.194;5.684;2023-08-30T17:12:27;22.30;71.20
21489;DHT22;10906;45.194;5.684;2023-08-30T17:15:12;22.30;71.60
21489;DHT22;10906;45.194;5.684;2023-08-30T17:17:57;22.20;71.80
21489;DHT22;10906;45.194;5.684;2023-08-30T17:20:41;22.10;72.40
21489;DHT22;10906;45.194;5.684;2023-08-30T17:23:25;22.10;72.80
21489;DHT22;10906;45.194;5.684;2023-08-30T17:26:10;22.00;73.20
21489;DHT22;10906;45.194;5.684;2023-08-30T17:28:54;21.90;72.90
21489;DHT22;10906;45.194;5.684;2023-08-30T17:31:38;21.90;74.20
21489;DHT22;10906;45.194;5.684;2023-08-30T17:34:22;21.80;74.40
21489;DHT22;10906;45.194;5.684;2023-08-30T17:37:06;21.70;74.20
21489;DHT22;10906;45.194;5.684;2023-08-30T17:39:54;21.70;74.50
21489;DHT22;10906;45.194;5.684;2023-08-30T17:42:39;21.50;75.30
21489;DHT22;10906;45.194;5.684;2023-08-30T17:45:24;21.50;74.80
21489;DHT22;10906;45.194;5.684;2023-08-30T17:48:08;21.50;75.20
21489;DHT22;10906;45.194;5.684;2023-08-30T17:50:53;21.50;75.80
21489;DHT22;10906;45.194;5.684;2023-08-30T17:53:37;21.50;75.40
21489;DHT22;10906;45.194;5.684;2023-08-30T17:56:22;21.30;76.00
21489;DHT22;10906;45.194;5.684;2023-08-30T17:59:08;21.30;75.80
21489;DHT22;10906;45.194;5.684;2023-08-30T18:01:53;21.20;76.30
21489;DHT22;10906;45.194;5.684;2023-08-30T18:04:38;21.20;77.00
21489;DHT22;10906;45.194;5.684;2023-08-30T18:07:23;21.20;76.80
21489;DHT22;10906;45.194;5.684;2023-08-30T18:10:08;21.10;77.40
21489;DHT22;10906;45.194;5.684;2023-08-30T18:12:52;21.00;77.60
21489;DHT22;10906;45.194;5.684;2023-08-30T18:15:37;21.00;77.70
21489;DHT22;10906;45.194;5.684;2023-08-30T18:18:21;20.90;78.60
21489;DHT22;10906;45.194;5.684;2023-08-30T18:21:06;20.80;79.00
21489;DHT22;10906;45.194;5.684;2023-08-30T18:24:13;20.80;79.20
21489;DHT22;10906;45.194;5.684;2023-08-30T18:26:57;20.70;80.60
21489;DHT22;10906;45.194;5.684;2023-08-30T18:29:42;20.60;80.60
21489;DHT22;10906;45.194;5.684;2023-08-30T18:32:26;20.50;81.00
21489;DHT22;10906;45.194;5.684;2023-08-30T18:35:12;20.40;81.10
21489;DHT22;10906;45.194;5.684;2023-08-30T18:37:56;20.40;82.10
21489;DHT22;10906;45.194;5.684;2023-08-30T18:40:41;20.30;82.00
21489;DHT22;10906;45.194;5.684;2023-08-30T18:43:25;20.20;82.50
21489;DHT22;10906;45.194;5.684;2023-08-30T18:46:10;20.20;83.20
21489;DHT22;10906;45.194;5.684;2023-08-30T18:48:54;20.10;83.70
21489;DHT22;10906;45.194;5.684;2023-08-30T18:51:39;20.00;84.40
21489;DHT22;10906;45.194;5.684;2023-08-30T18:54:23;19.90;84.80
21489;DHT22;10906;45.194;5.684;2023-08-30T18:57:07;19.80;87.60
21489;DHT22;10906;45.194;5.684;2023-08-30T18:59:53;19.70;85.40
21489;DHT22;10906;45.194;5.684;2023-08-30T19:02:38;19.70;86.20
21489;DHT22;10906;45.194;5.684;2023-08-30T19:05:22;19.60;86.40
21489;DHT22;10906;45.194;5.684;2023-08-30T19:08:06;19.60;85.70
21489;DHT22;10906;45.194;5.684;2023-08-30T19:10:51;19.60;86.50
21489;DHT22;10906;45.194;5.684;2023-08-30T19:13:36;19.60;86.90
21489;DHT22;10906;45.194;5.684;2023-08-30T19:16:22;19.50;85.70
21489;DHT22;10906;45.194;5.684;2023-08-30T19:19:07;19.50;85.90
21489;DHT22;10906;45.194;5.684;2023-08-30T19:21:52;19.50;86.20
21489;DHT22;10906;45.194;5.684;2023-08-30T19:24:36;19.50;86.10
21489;DHT22;10906;45.194;5.684;2023-08-30T19:27:21;19.50;85.50
21489;DHT22;10906;45.194;5.684;2023-08-30T19:30:06;19.40;85.60
21489;DHT22;10906;45.194;5.684;2023-08-30T19:32:51;19.50;87.10
21489;DHT22;10906;45.194;5.684;2023-08-30T19:35:35;19.50;86.50
21489;DHT22;10906;45.194;5.684;2023-08-30T19:38:21;19.40;87.40
21489;DHT22;10906;45.194;5.684;2023-08-30T19:41:08;19.30;88.90
21489;DHT22;10906;45.194;5.684;2023-08-30T19:43:53;19.20;88.10
21489;DHT22;10906;45.194;5.684;2023-08-30T19:46:39;19.20;88.80
21489;DHT22;10906;45.194;5.684;2023-08-30T19:49:23;19.10;89.30
21489;DHT22;10906;45.194;5.684;2023-08-30T19:52:08;19.00;88.40
21489;DHT22;10906;45.194;5.684;2023-08-30T19:54:53;19.00;89.00
21489;DHT22;10906;45.194;5.684;2023-08-30T19:57:38;18.90;89.00
21489;DHT22;10906;45.194;5.684;2023-08-30T20:00:24;18.80;88.90
21489;DHT22;10906;45.194;5.684;2023-08-30T20:07:06;18.00;88.90
21489;DHT22;10906;45.194;5.684;2023-08-30T20:09:50;18.70;89.20
21489;DHT22;10906;45.194;5.684;2023-08-30T20:12:35;18.70;89.30
21489;DHT22;10906;45.194;5.684;2023-08-30T20:15:19;18.70;90.20
21489;DHT22;10906;45.194;5.684;2023-08-30T20:18:07;18.70;89.20
21489;DHT22;10906;45.194;5.684;2023-08-30T20:29:04;18.70;90.50
21489;DHT22;10906;45.194;5.684;2023-08-30T20:39:20;17.00;90.20
21489;DHT22;10906;45.194;5.684;2023-08-30T20:42:05;18.40;91.00
21489;DHT22;10906;45.194;5.684;2023-08-30T20:44:49;18.30;91.20
21489;DHT22;10906;45.194;5.684;2023-08-30T20:47:34;18.20;91.30
21489;DHT22;10906;45.194;5.684;2023-08-30T20:50:19;18.10;91.60
21489;DHT22;10906;45.194;5.684;2023-08-30T20:53:04;18.00;91.70
21489;DHT22;10906;45.194;5.684;2023-08-30T20:55:49;17.90;91.90
21489;DHT22;10906;45.194;5.684;2023-08-30T20:58:33;17.90;92.00
21489;DHT22;10906;45.194;5.684;2023-08-30T21:01:18;17.80;92.90
21489;DHT22;10906;45.194;5.684;2023-08-30T21:04:02;17.80;92.30
21489;DHT22;10906;45.194;5.684;2023-08-30T21:06:47;17.90;92.40
21489;DHT22;10906;45.194;5.684;2023-08-30T21:09:31;17.90;92.60
21489;DHT22;10906;45.194;5.684;2023-08-30T21:12:16;17.80;92.60
21489;DHT22;10906;45.194;5.684;2023-08-30T21:15:00;17.70;92.70
21489;DHT22;10906;45.194;5.684;2023-08-30T21:17:44;17.70;92.80
21489;DHT22;10906;45.194;5.684;2023-08-30T21:20:29;17.60;92.80
21489;DHT22;10906;45.194;5.684;2023-08-30T21:23:16;17.60;92.80
21489;DHT22;10906;45.194;5.684;2023-08-30T21:26:00;17.60;93.00
21489;DHT22;10906;45.194;5.684;2023-08-30T21:28:45;17.60;93.20
21489;DHT22;10906;45.194;5.684;2023-08-30T21:31:31;17.50;93.20
21489;DHT22;10906;45.194;5.684;2023-08-30T21:34:16;17.60;93.20
21489;DHT22;10906;45.194;5.684;2023-08-30T21:37:00;17.40;93.10
21489;DHT22;10906;45.194;5.684;2023-08-30T21:39:45;17.40;93.30
21489;DHT22;10906;45.194;5.684;2023-08-30T21:42:31;17.30;93.80
21489;DHT22;10906;45.194;5.684;2023-08-30T21:45:15;17.30;93.50
21489;DHT22;10906;45.194;5.684;2023-08-30T21:48:00;17.20;93.40
21489;DHT22;10906;45.194;5.684;2023-08-30T21:50:45;17.20;93.70
21489;DHT22;10906;45.194;5.684;2023-08-30T21:53:29;17.20;93.50
21489;DHT22;10906;45.194;5.684;2023-08-30T21:56:14;17.10;93.70
21489;DHT22;10906;45.194;5.684;2023-08-30T21:58:59;17.20;93.80
